Bradford, Maine
Current Conditions -  °F | °C
As of 7:53 AM on Saturday 25 Oct 2014 (Local Time) from KBGR Reporting Station
Overcast Overcast  
Wind Chill: 42°   Ceiling: 5000
Heat Index: 44°   Visibility: 10mi
Dew Point: 39°   Wind: 5mph
Humidity: 82%   Direction: 250°WSW
Pressure: 29.66"   Gusts: NA
Location:  45.07°N, 68.94°W
Report Text: KBGR 251153Z 25004KT 10SM BKN050 OVC060 07/04 A2966 RMK AO2 SLP045 60000 70009 T00670039 10078 20061 50001
Loading
Personal Weather Stations






























Interactive Weather Map
Tropical Storm Tracking
New forecast layout! Learn more

10-Day Weather Forecast

Advertisements
Track Severe Weather on mobile